Flight Track Log - Related Links

Times and Time Zones

All times are in EDT time to prevent confusion due to time zone crossing. See the AVN51 flight status page for this flight to view local times or setup timezone preferences in your user account.

Time Position Orientation Groundspeed Altitude Reporting Facility
EDT Latitude Longitude Course Direction KTS MPH feet Rate Location/Type
Tue 08:06:02 PM -37.0080 174.7800 270° West  Level FlightAware ADS-B
Tue 08:08:00 PM -36.8147 174.7009 342° North  Level Estimated
Tue 08:14:00 PM -36.8039 174.7176 342° North  Level Estimated
Tue 08:14:58 PM -37.0140 174.7790 253° West 155 178  Level FlightAware ADS-B
Tue 08:15:08 PM -37.0167 174.7667 253° West 117 135 1,895 Level New Zealand
Tue 08:15:17 PM -37.0190 174.7610 251° West 157 181 600 2,647 Climbing FlightAware ADS-B
Tue 08:15:42 PM -37.0250 174.7400 250° West 155 178 1,500 1,647 Climbing FlightAware ADS-B
Tue 08:16:08 PM -37.0310 174.7170 252° West 172 198 2,000 1,400 Climbing FlightAware ADS-B
Tue 08:16:42 PM -37.0410 174.6820 250° West 197 227 2,900 1,846 Climbing FlightAware ADS-B
Tue 08:17:13 PM -37.0510 174.6480 250° West 204 235 4,000 1,636 Climbing FlightAware ADS-B
Tue 08:17:37 PM -37.0590 174.6190 251° West 234 269 4,400 1,059 Climbing FlightAware ADS-B
Tue 08:17:47 PM -37.0630 174.6060 249° West 245 282 4,600 1,833 Climbing FlightAware ADS-B
Tue 08:18:13 PM -37.0730 174.5710 250° West 251 289 5,500 2,471 Climbing FlightAware ADS-B
Tue 08:18:38 PM -37.0730 174.5340 270° West 258 297 6,700 2,816 Climbing FlightAware ADS-B
Tue 08:19:02 PM -37.0540 174.5070 270° West 269 310 7,800 2,618 Climbing FlightAware ADS-B
Tue 08:19:14 PM -37.0333 174.5000 270° West 276 318 2,516 Descending New Zealand
Tue 08:19:33 PM -37.0190 174.4870 335° Northwest 282 325 9,100 9,217 Climbing FlightAware ADS-B
Tue 08:20:16 PM -36.9667 174.4667 335° Northwest 289 333 1,800 Descending New Zealand
Tue 08:20:23 PM -36.9530 174.4570 335° Northwest 321 369 10,600 20,000 Climbing FlightAware ADS-B
Tue 08:20:49 PM -36.9140 174.4440 345° North 350 403 11,000 1,440 Climbing FlightAware ADS-B
Tue 08:21:13 PM -36.8750 174.4300 344° North 364 419 11,800 2,325 Climbing FlightAware ADS-B
Tue 08:22:09 PM -36.7830 174.3970 344° North 369 425 14,100 2,467 Climbing FlightAware ADS-B
Tue 08:22:19 PM -36.7667 174.3833 344° North 377 434 2,471 Descending New Zealand
Tue 08:22:43 PM -36.7240 174.3760 344° North 384 442 15,500 13,595 Climbing FlightAware ADS-B
Tue 08:23:20 PM -36.6667 174.3500 344° North 384 442 2,618 Descending New Zealand
Tue 08:23:38 PM -36.6300 174.3420 344° North 389 448 17,900 15,114 Climbing FlightAware ADS-B
Tue 08:24:22 PM -36.5500 174.3167 344° North 403 464 1,967 Descending New Zealand
Tue 08:24:39 PM -36.5210 174.3030 344° North 405 466 19,900 19,059 Climbing FlightAware ADS-B
Tue 08:25:23 PM -36.4333 174.2667 344° North 420 483 2,000 Descending New Zealand
Tue 08:25:30 PM -36.4260 174.2690 344° North 415 478 21,600 43,355 Climbing FlightAware ADS-B
Tue 08:25:54 PM -36.3790 174.2520 344° North 419 482 22,400 1,826 Climbing FlightAware ADS-B
Tue 08:26:24 PM -36.3167 174.2333 344° North 431 496 1,733 Descending New Zealand
Tue 08:26:39 PM -36.2930 174.2220 344° North 435 501 23,700 21,686 Climbing FlightAware ADS-B
Tue 08:27:25 PM -36.2000 174.1833 344° North 440 506 1,745 Descending New Zealand
Tue 08:27:34 PM -36.1850 174.1840 344° North 435 501 25,300 26,600 Climbing FlightAware ADS-B
Tue 08:28:25 PM -36.0840 174.1480 344° North 454 522 26,600 1,358 Climbing FlightAware ADS-B
Tue 08:28:26 PM -36.0833 174.1500 344° North 450 518 1,200 Descending New Zealand
Tue 08:29:20 PM -35.9720 174.1080 344° North 465 535 27,700 16,718 Climbing FlightAware ADS-B
Tue 08:29:28 PM -35.9500 174.1000 344° North 465 535 1,224 Descending New Zealand
Tue 08:30:09 PM -35.8680 174.0710 344° North 472 543 28,700 20,721 Climbing FlightAware ADS-B
Tue 08:30:29 PM -35.8333 174.0500 344° North 473 544 1,333 Descending New Zealand
Tue 08:30:54 PM -35.7740 174.0380 344° North 466 536 29,700 26,028 Climbing FlightAware ADS-B
Tue 08:31:30 PM -35.7000 174.0167 344° North 474 545 1,435 Descending New Zealand
Tue 08:31:40 PM -35.6780 174.0050 344° North 466 536 30,800 29,538 Climbing FlightAware ADS-B
Tue 08:32:31 PM -35.5667 173.9667 344° North 474 545 1,309 Descending New Zealand
Tue 08:32:35 PM -35.5600 173.9640 344° North 466 536 32,000 56,057 Climbing FlightAware ADS-B
Tue 08:33:06 PM -35.4960 173.9410 344° North 465 535 32,700 1,259 Climbing FlightAware ADS-B
Tue 08:33:56 PM -35.3910 173.9050 344° North 472 543 33,700 1,152 Climbing FlightAware ADS-B
Tue 08:34:33 PM -35.3167 173.8667 344° North 473 544 1,102 Descending New Zealand
Tue 08:34:45 PM -35.2860 173.8680 344° North 466 536 34,600 44,000 Climbing FlightAware ADS-B
Tue 08:35:21 PM -35.2110 173.8430 344° North 466 536 35,200 943 Climbing FlightAware ADS-B
Tue 08:35:34 PM -35.1833 173.8333 344° North 474 545 882 Descending New Zealand
Tue 08:35:55 PM -35.1380 173.8180 344° North 467 537 35,700 30,000 Climbing FlightAware ADS-B
Tue 08:36:35 PM -35.0500 173.7833 344° North 476 548 353 Descending New Zealand
Tue 08:36:46 PM -35.0310 173.7810 344° North 470 541 36,000 35,410 Climbing FlightAware ADS-B
Tue 08:37:36 PM -34.9230 173.7440 344° North 467 537 36,000  Level FlightAware ADS-B
Tue 08:37:37 PM -34.9167 173.7333 344° North 475 547  Descending New Zealand
Tue 08:38:21 PM -34.8300 173.7120 344° North 467 537 36,000 22,737 Climbing FlightAware ADS-B
Tue 08:38:38 PM -34.7833 173.7000 344° North 474 545  Descending New Zealand
Tue 08:39:12 PM -34.7220 173.6750 344° North 465 535 36,000 22,979 Climbing FlightAware ADS-B
Tue 08:40:12 PM -34.5960 173.6320 344° North 471 542 36,000  Level FlightAware ADS-B
Tue 08:40:56 PM -34.5030 173.6000 344° North 469 540 36,000  Level FlightAware ADS-B
Tue 08:41:42 PM -34.4000 173.5667 344° North 468 539  Descending New Zealand
Tue 08:41:52 PM -34.3880 173.5610 344° North 469 540 36,000 74,483 Climbing FlightAware ADS-B
Tue 08:42:11 PM -34.3460 173.5470 345° North 469 540 36,000  Level FlightAware ADS-B
Tue 08:42:43 PM -34.2833 173.5167 345° North 470 541  Descending New Zealand
Tue 08:42:43 PM -34.2820 173.5250 345° North 470 541 36,000 40,000 Climbing FlightAware ADS-B
Tue 08:43:37 PM -34.1670 173.4870 345° North 465 535 36,000  Level FlightAware ADS-B
Tue 08:43:44 PM -34.1500 173.4833 345° North 472 543  Descending New Zealand
Tue 08:44:22 PM -34.0700 173.4540 344° North 466 536 36,000 24,270 Climbing FlightAware ADS-B
Tue 08:45:13 PM -33.9630 173.4180 344° North 467 537 36,000  Level FlightAware ADS-B
Tue 08:45:47 PM -33.8833 173.3833 344° North 475 547  Descending New Zealand
Tue 08:46:03 PM -33.8580 173.3830 344° North 468 539 36,000 32,727 Climbing FlightAware ADS-B
Tue 08:46:48 PM -33.7667 173.3500 344° North 474 545  Descending New Zealand
Tue 08:46:53 PM -33.7630 173.3470 344° North 475 547 36,000 52,683 Climbing FlightAware ADS-B
Tue 08:47:29 PM -33.6930 173.3200 342° North 474 545 36,000  Level FlightAware ADS-B
Tue 08:48:02 PM -33.6333 173.3000 342° North 463 533  Descending New Zealand
Tue 08:48:12 PM -33.5900 173.2820 342° North 474 545 36,000 36,000 Climbing FlightAware ADS-B
Tue 08:48:50 PM -33.5000 173.2500 342° North 473 544  Descending New Zealand
Tue 08:49:02 PM -33.4890 173.2450 342° North 473 544 36,000 61,714 Climbing FlightAware ADS-B
Tue 08:49:25 PM -33.4420 173.2280 342° North 472 543 36,000  Level FlightAware ADS-B
Tue 08:49:52 PM -33.3667 173.2000 342° North 472 543  Descending New Zealand
Tue 08:50:02 PM -33.3833 173.2000 342° North 463 533 58,378 Level New Zealand
Tue 08:50:29 PM -33.3290 173.1840 342° North 472 543 36,000 28,421 Climbing FlightAware ADS-B
Tue 08:51:18 PM -33.2430 173.1500 342° North 472 543 36,000  Level FlightAware ADS-B
Tue 08:51:53 PM -33.1810 173.1260 342° North 472 543 36,000  Level FlightAware ADS-B
Tue 08:51:54 PM -33.1167 173.1000 342° North 469 540  Descending New Zealand
Tue 08:52:53 PM -33.0750 173.0850 342° North 472 543 36,000 20,187 Climbing FlightAware ADS-B
Tue 08:53:23 PM -32.9333 173.0333 342° North 409 471  Descending New Zealand
Tue 08:53:41 PM -32.9900 173.0530 360° North 472 543 36,000 27,000 Climbing FlightAware ADS-B
Tue 08:54:02 PM -32.8833 173.0333 360° North 463 533  Descending New Zealand
Tue 08:54:43 PM -32.8810 173.0100 342° North 472 543 36,000 24,270 Climbing FlightAware ADS-B
Tue 08:55:31 PM -32.7960 172.9770 342° North 472 543 36,000  Level FlightAware ADS-B
Tue 08:56:02 PM -32.6333 172.9333 342° North 463 533  Descending New Zealand
Tue 08:56:19 PM -32.7120 172.9450 342° North 472 543 36,000 32,727 Climbing FlightAware ADS-B
Tue 08:57:08 PM -32.6250 172.9110 342° North 472 543 36,000  Level FlightAware ADS-B
Tue 08:57:56 PM -32.5400 172.8790 342° North 472 543 36,000  Level FlightAware ADS-B
Tue 08:58:02 PM -32.4000 172.8500 342° North 463 533  Descending New Zealand
Tue 08:58:45 PM -32.4540 172.8450 342° North 472 543 36,000 451 Climbing FlightAware ADS-B
Tue 09:00:02 PM -32.1500 172.7667 342° North 463 533 -41 Descending New Zealand
Tue 09:02:02 PM -31.9000 172.6667 341° North 463 533 464 Level New Zealand
Tue 09:04:02 PM -31.6500 172.5833 344° North 463 533 477 Level New Zealand
Tue 09:06:02 PM -31.4167 172.5000 343° North 463 533 491 Level New Zealand
Tue 09:08:02 PM -31.1667 172.4167 344° North 463 533 506 Level New Zealand
Tue 09:10:02 PM -30.9167 172.3167 341° North 463 533 522 Level New Zealand
Tue 09:12:02 PM -30.6667 172.2333 344° North 463 533 540 Level New Zealand
Tue 09:14:02 PM -30.4167 172.1500 344° North 463 533 558 Level New Zealand
Tue 09:16:02 PM -30.1667 172.0667 344° North 463 533 577 Level New Zealand
Tue 09:18:02 PM -29.9333 171.9833 343° North 463 533 598 Level New Zealand
Tue 09:20:02 PM -29.6833 171.9000 344° North 463 533 621 Level New Zealand
Tue 09:22:02 PM -29.4333 171.8167 344° North 432 497 645 Level New Zealand
Tue 09:24:02 PM -29.3167 171.7833 346° North 447 514 671 Level New Zealand
Tue 09:26:02 PM -29.0833 171.7000 343° North 447 514 700 Level New Zealand
Tue 09:28:02 PM -28.8333 171.6167 344° North 447 514 731 Level New Zealand
Tue 09:30:02 PM -28.6000 171.5333 343° North 447 514 764 Level New Zealand
Tue 09:32:02 PM -28.3667 171.4667 346° North 447 514 802 Level New Zealand
Tue 09:34:02 PM -28.1167 171.3833 344° North 447 514 843 Level New Zealand
Tue 09:36:02 PM -27.8833 171.3000 342° North 447 514 888 Level New Zealand
Tue 09:38:02 PM -27.6333 171.2167 344° North 447 514 938 Level New Zealand
Tue 09:40:02 PM -27.4000 171.1500 346° North 447 514 995 Level New Zealand
Tue 09:42:02 PM -27.1667 171.0667 342° North 447 514 1,059 Level New Zealand
Tue 09:44:02 PM -26.9167 171.0000 347° North 447 514 1,131 Level New Zealand
Tue 09:46:02 PM -26.6833 170.9167 342° North 447 514 1,215 Level New Zealand
Tue 09:48:02 PM -26.4333 170.8333 343° North 447 514 1,311 Level New Zealand
Tue 09:50:02 PM -26.2000 170.7667 346° North 447 514 1,424 Level New Zealand
Tue 09:52:02 PM -25.9667 170.6833 342° North 447 514 1,559 Level New Zealand
Tue 09:54:00 PM -25.7914 170.6322 345° North  Level FlightAware Approximate
Tue 10:01:00 PM -25.1723 170.4323 344° North  Level FlightAware Approximate
Tue 10:02:00 PM -25.0840 170.4036 344° North  Level FlightAware Approximate
Tue 10:03:00 PM -24.9956 170.3750 344° North  Level FlightAware Approximate
Tue 10:04:00 PM -24.9072 170.3463 344° North  Level FlightAware Approximate
Tue 10:05:00 PM -24.8188 170.3178 344° North  Level FlightAware Approximate
Tue 10:06:00 PM -24.7304 170.2892 344° North  Level FlightAware Approximate
Tue 10:07:00 PM -24.6420 170.2607 344° North  Level FlightAware Approximate
Tue 10:08:00 PM -24.5536 170.2323 344° North  Level FlightAware Approximate
Tue 10:09:00 PM -24.4652 170.2038 344° North  Level FlightAware Approximate
Tue 10:10:00 PM -24.3768 170.1755 344° North  Level FlightAware Approximate
Tue 10:11:00 PM -24.2883 170.1471 344° North  Level FlightAware Approximate
Tue 10:11:12 PM -24.0100 170.0590 344° North 391 450 33,000  Level FlightAware ADS-B
Tue 10:11:53 PM -23.9380 170.0360 344° North 390 449 33,000  Level FlightAware ADS-B
Tue 10:12:46 PM -23.8540 170.0080 343° North 390 449 33,000  Level FlightAware ADS-B
Tue 10:13:32 PM -23.7680 169.9820 345° North 388 447 33,000  Level FlightAware ADS-B
Tue 10:14:35 PM -23.6760 169.9510 343° North 388 447 33,000  Level FlightAware ADS-B
Tue 10:15:20 PM -23.5880 169.9240 344° North 388 447 33,000  Level FlightAware ADS-B
Tue 10:16:08 PM -23.5180 169.9010 343° North 388 447 33,000  Level FlightAware ADS-B
Tue 10:16:56 PM -23.4480 169.8770 343° North 388 447 33,000  Level FlightAware ADS-B
Tue 10:17:56 PM -23.3610 169.8480 343° North 388 447 33,000  Level FlightAware ADS-B
Tue 10:18:30 PM -23.2500 169.8180 346° North 392 451 33,000  Level FlightAware ADS-B
Tue 10:19:08 PM -23.1860 169.7980 344° North 393 452 33,000  Level FlightAware ADS-B
Tue 10:20:10 PM -23.0940 169.7670 343° North 393 452 33,000  Level FlightAware ADS-B
Tue 10:20:56 PM -23.0260 169.7440 343° North 393 452 33,000  Level FlightAware ADS-B
Tue 10:21:30 PM -22.9760 169.7280 344° North 393 452 33,000  Level FlightAware ADS-B
Tue 10:22:21 PM -22.8460 169.6910 345° North 392 451 33,000  Level FlightAware ADS-B
Tue 10:22:59 PM -22.7810 169.6700 343° North 391 450 33,000  Level FlightAware ADS-B
Tue 10:23:52 PM -22.7010 169.6440 343° North 391 450 33,000  Level FlightAware ADS-B
Tue 10:24:41 PM -22.6290 169.6200 343° North 391 450 33,000  Level FlightAware ADS-B
Tue 10:25:53 PM -22.5230 169.5850 343° North 391 450 33,000  Level FlightAware ADS-B
Tue 10:26:55 PM -22.4320 169.5550 343° North 391 450 33,000  Level FlightAware ADS-B
Tue 10:27:19 PM -22.3970 169.5430 342° North 391 450 33,000  Level FlightAware ADS-B
Tue 10:27:55 PM -22.3440 169.5260 343° North 391 450 33,000  Level FlightAware ADS-B
Tue 10:28:55 PM -22.2560 169.4970 343° North 391 450 33,000  Level FlightAware ADS-B
Tue 10:29:43 PM -22.1850 169.4730 343° North 391 450 33,000  Level FlightAware ADS-B
Tue 10:30:32 PM -22.1130 169.4500 344° North 391 450 33,000  Level FlightAware ADS-B
Tue 10:31:20 PM -22.0420 169.4260 343° North 391 450 33,000  Level FlightAware ADS-B
Tue 10:32:36 PM -21.7770 169.3590 347° North 389 448 33,000  Level FlightAware ADS-B
Tue 10:33:15 PM -21.7020 169.3360 344° North 385 443 33,000  Level FlightAware ADS-B
Tue 10:34:24 PM -21.5940 169.3020 344° North 386 444 33,000  Level FlightAware ADS-B
Tue 10:35:12 PM -21.5240 169.2790 343° North 386 444 33,000  Level FlightAware ADS-B
Tue 10:36:01 PM -21.4180 169.2490 345° North 388 447 33,000  Level FlightAware ADS-B
Tue 10:37:02 PM -21.3290 169.2190 343° North 388 447 33,000  Level FlightAware ADS-B
Tue 10:37:26 PM -21.2940 169.2080 344° North 388 447 33,000  Level FlightAware ADS-B
Tue 10:38:26 PM -21.2070 169.1790 343° North 388 447 33,000  Level FlightAware ADS-B
Tue 10:39:14 PM -21.1370 169.1560 343° North 388 447 33,000  Level FlightAware ADS-B
Tue 10:40:14 PM -21.0490 169.1280 343° North 388 447 33,000  Level FlightAware ADS-B
Tue 10:40:38 PM -21.0140 169.1160 342° North 388 447 33,000  Level FlightAware ADS-B
Tue 10:41:26 PM -20.9440 169.0930 343° North 388 447 33,000  Level FlightAware ADS-B
Tue 10:42:02 PM -20.8920 169.0760 343° North 388 447 33,000  Level FlightAware ADS-B
Tue 10:42:38 PM -20.8390 169.0590 343° North 388 447 33,000  Level FlightAware ADS-B
Tue 10:43:15 PM -20.7850 169.0410 343° North 388 447 33,000  Level FlightAware ADS-B
Tue 10:44:15 PM -20.6980 169.0130 343° North 388 447 33,000  Level FlightAware ADS-B
Tue 10:45:15 PM -20.6100 168.9840 343° North 388 447 33,000  Level FlightAware ADS-B
Tue 10:45:51 PM -20.5580 168.9670 343° North 388 447 33,000  Level FlightAware ADS-B
Tue 10:48:00 PM -20.3667 168.9122 345° North  Level FlightAware Approximate
Tue 10:49:00 PM -20.2777 168.8868 345° North  Level FlightAware Approximate
Tue 10:50:00 PM -20.1888 168.8613 345° North  Level FlightAware Approximate
Tue 10:51:00 PM -20.0998 168.8360 345° North  Level FlightAware Approximate
Tue 10:52:00 PM -20.0108 168.8106 345° North  Level FlightAware Approximate
Tue 10:53:00 PM -19.9218 168.7853 345° North  Level FlightAware Approximate
Tue 10:54:00 PM -19.8328 168.7600 345° North  Level FlightAware Approximate
Tue 10:55:00 PM -19.7438 168.7347 345° North  Level FlightAware Approximate
Tue 10:56:00 PM -19.6548 168.7095 345° North  Level FlightAware Approximate
Tue 10:57:00 PM -19.5658 168.6843 345° North  Level FlightAware Approximate
Tue 10:58:00 PM -19.4768 168.6591 345° North  Level FlightAware Approximate
Tue 10:59:00 PM -19.3878 168.6339 345° North  Level FlightAware Approximate
Tue 11:00:00 PM -19.2991 168.6104 348° North  Level FlightAware Approximate
Tue 11:01:00 PM -19.2090 168.5901 348° North  Level FlightAware Approximate
Tue 11:02:00 PM -19.1189 168.5697 348° North  Level FlightAware Approximate
Tue 11:03:00 PM -19.0288 168.5494 348° North  Level FlightAware Approximate
Tue 11:04:00 PM -18.9387 168.5291 348° North  Level FlightAware Approximate
Tue 11:05:00 PM -18.8486 168.5089 348° North  Level FlightAware Approximate
Tue 11:06:00 PM -18.7585 168.4886 348° North  Level FlightAware Approximate
Tue 11:07:00 PM -18.6684 168.4684 348° North  Level FlightAware Approximate
Tue 11:08:00 PM -18.5783 168.4482 348° North  Level FlightAware Approximate
Tue 11:09:00 PM -18.4882 168.4280 348° North  Level FlightAware Approximate
Tue 11:10:00 PM -18.3981 168.4078 348° North  Level FlightAware Approximate
Tue 11:11:00 PM -18.3080 168.3877 348° North  Level FlightAware Approximate
Tue 11:12:00 PM -18.2179 168.3676 348° North  Level FlightAware Approximate
Tue 11:13:00 PM -18.1277 168.3475 348° North  Level FlightAware Approximate
Tue 11:14:00 PM -18.0376 168.3274 348° North  Level FlightAware Approximate
Tue 11:15:00 PM -17.9475 168.3073 348° North  Level FlightAware Approximate
Tue 11:16:00 PM -17.8574 168.2873 348° North  Level FlightAware Approximate
Tue 11:17:00 PM -17.7673 168.2673 348° North  Level FlightAware Approximate
Tue 11:18:00 PM -17.6993 168.3198 348° North  Level Estimated
Tue 11:19:00 PM -17.6993 168.3198 348° North  Level Estimated
Tue 11:20:00 PM -17.6993 168.3198 348° North  Level Estimated
Tue 11:21:00 PM -17.6993 168.3198 348° North  Level Estimated
Tue 11:22:00 PM -17.6993 168.3198 348° North  Level Estimated
Tue 11:23:00 PM -17.6993 168.3198 348° North  Level Estimated
Tue 11:24:00 PM -17.6993 168.3198 348° North  Level Estimated
Tue 11:25:00 PM -17.6993 168.3198 348° North  Level Estimated
Tue 11:26:00 PM -17.6993 168.3198 348° North  Level Estimated
Tue 11:27:00 PM -17.6993 168.3198 348° North  Level Estimated
Tue 11:28:00 PM -17.6993 168.3198 348° North  Level Estimated
Tue 11:29:00 PM -17.6993 168.3198 348° North  Level Estimated
Tue 11:30:00 PM -17.6993 168.3198 348° North  Level Estimated
Tue 11:31:00 PM -17.6993 168.3198 348° North  Level Estimated
Tue 11:32:00 PM -17.6993 168.3198 348° North  Level Estimated
Tue 11:33:00 PM -17.6993 168.3198 348° North  Level Estimated

Login

Don't have an account? Register now (free) for customized features, flight alerts, and more!